createdAt,value
2022-12-20T00:00:54.260Z,100921.80
2022-12-20T00:03:24.804Z,100917.91
2022-12-20T00:05:54.979Z,100916.16
2022-12-20T00:08:25.201Z,100913.95
2022-12-20T00:10:55.377Z,100911.75
2022-12-20T00:13:25.627Z,100910.03
2022-12-20T00:16:10.081Z,100899.06
2022-12-20T00:18:42.472Z,100899.06
2022-12-20T00:21:14.739Z,100894.19
2022-12-20T00:23:44.969Z,100886.30
2022-12-20T00:26:17.854Z,100877.95
2022-12-20T00:28:48.728Z,100882.34
2022-12-20T00:31:20.680Z,100878.39
2022-12-20T00:33:53.807Z,100880.59
2022-12-20T00:36:26.006Z,100875.78
2022-12-20T00:38:58.529Z,100878.42
2022-12-20T00:41:32.032Z,100877.10
2022-12-20T00:44:03.203Z,100877.13
2022-12-20T00:46:34.597Z,100885.05
2022-12-20T00:49:04.990Z,100891.20
2022-12-20T00:51:35.211Z,100882.67
2022-12-20T00:54:05.451Z,100864.23
2022-12-20T00:56:35.571Z,100866.11
2022-12-20T00:59:05.814Z,100863.59
2022-12-20T01:01:36.182Z,100864.23
2022-12-20T01:04:06.928Z,100857.45
2022-12-20T01:06:38.322Z,100859.38
2022-12-20T01:09:08.625Z,100853.84
2022-12-20T01:11:40.090Z,100852.61
2022-12-20T01:14:13.297Z,100852.68
2022-12-20T01:16:46.668Z,100847.91
2022-12-20T01:19:19.224Z,100849.73
2022-12-20T01:21:49.412Z,100844.48
2022-12-20T01:24:21.518Z,100849.82
2022-12-20T01:26:51.627Z,100841.03
2022-12-20T01:29:21.905Z,100844.64
2022-12-20T01:31:53.930Z,100842.91
2022-12-20T01:34:24.193Z,100837.23
2022-12-20T01:36:54.423Z,100824.91
2022-12-20T01:39:24.856Z,100811.28
2022-12-20T01:41:54.948Z,100808.23
2022-12-20T01:44:28.260Z,100799.87
2022-12-20T01:46:58.747Z,100798.15
2022-12-20T01:49:40.984Z,100794.62
2022-12-20T01:52:14.028Z,100795.54
2022-12-20T01:54:59.054Z,100787.62
2022-12-20T01:57:32.342Z,100781.44
2022-12-20T02:00:02.984Z,100770.00
2022-12-20T02:02:34.420Z,100769.16
2022-12-20T02:05:05.552Z,100767.39
2022-12-20T02:07:39.050Z,100770.03
2022-12-20T02:10:12.112Z,100764.76
2022-12-20T02:12:47.764Z,100771.38
2022-12-20T02:15:29.745Z,100767.42
2022-12-20T02:18:30.435Z,100766.09
2022-12-20T02:21:23.669Z,100759.50
2022-12-20T02:24:25.827Z,100758.19
2022-12-20T02:27:04.779Z,100749.36
2022-12-20T02:30:03.864Z,100746.31
2022-12-20T02:32:52.033Z,100757.69
2022-12-20T02:35:25.434Z,100751.09
2022-12-20T02:37:58.736Z,100751.53
2022-12-20T02:40:37.746Z,100743.18
2022-12-20T02:43:29.153Z,100750.22
2022-12-20T02:46:01.472Z,100742.30
2022-12-20T02:48:34.647Z,100739.66
2022-12-20T02:51:06.932Z,100738.34
2022-12-20T02:53:39.332Z,100740.11
2022-12-20T02:56:21.056Z,100737.47
2022-12-20T02:59:03.365Z,100733.92
2022-12-20T03:01:36.949Z,100732.63
2022-12-20T03:04:08.916Z,100722.08
2022-12-20T03:06:40.150Z,100722.98
2022-12-20T03:09:10.284Z,100726.94
2022-12-20T03:11:40.454Z,100722.98
2022-12-20T03:14:10.634Z,100718.61
2022-12-20T03:16:40.834Z,100712.89
2022-12-20T03:19:11.039Z,100717.28
2022-12-20T03:21:41.730Z,100727.84
2022-12-20T03:24:13.590Z,100729.19
2022-12-20T03:26:44.502Z,100735.34
2022-12-20T03:29:14.800Z,100734.03
2022-12-20T03:31:45.193Z,100739.74
2022-12-20T03:34:15.446Z,100715.55
2022-12-20T03:36:45.594Z,100707.64
2022-12-20T03:39:15.759Z,100729.63
2022-12-20T03:41:46.342Z,100716.88
2022-12-20T03:44:16.794Z,100710.28
2022-12-20T03:46:47.118Z,100712.48
2022-12-20T03:49:17.540Z,100714.67
2022-12-20T03:51:47.785Z,100719.08
2022-12-20T03:54:17.917Z,100716.44
2022-12-20T03:56:48.246Z,100716.47
2022-12-20T03:59:18.448Z,100720.39
2022-12-20T04:01:48.844Z,100720.83
2022-12-20T04:04:19.316Z,100714.23
2022-12-20T04:06:49.720Z,100718.63
2022-12-20T04:09:19.957Z,100719.08
2022-12-20T04:11:50.244Z,100721.72
2022-12-20T04:14:20.494Z,100715.09
2022-12-20T04:16:50.591Z,100707.64
2022-12-20T04:19:20.714Z,100695.30
2022-12-20T04:21:50.850Z,100688.27
2022-12-20T04:24:21.110Z,100680.81
2022-12-20T04:26:51.453Z,100686.53
2022-12-20T04:29:21.704Z,100686.53
2022-12-20T04:31:52.049Z,100684.30
2022-12-20T04:34:22.413Z,100678.17
2022-12-20T04:36:52.686Z,100676.88
2022-12-20T04:39:22.901Z,100683.48
2022-12-20T04:41:53.211Z,100689.61
2022-12-20T04:44:23.611Z,100697.08
2022-12-20T04:46:55.590Z,100701.95
2022-12-20T04:49:26.308Z,100700.16
2022-12-20T04:51:58.108Z,100700.16
2022-12-20T04:54:28.359Z,100703.67
2022-12-20T04:56:58.567Z,100697.94
2022-12-20T04:59:28.774Z,100702.37
2022-12-20T05:01:59.271Z,100691.37
2022-12-20T05:04:36.805Z,100685.22
2022-12-20T05:07:02.089Z,100688.27
2022-12-20T05:09:32.248Z,100677.30
2022-12-20T05:12:02.400Z,100675.98
2022-12-20T05:14:32.588Z,100675.07
2022-12-20T05:17:02.729Z,100678.16
2022-12-20T05:19:33.154Z,100664.95
2022-12-20T05:22:21.107Z,100674.20
2022-12-20T05:25:09.217Z,100676.86
2022-12-20T05:27:39.304Z,100670.21
2022-12-20T05:30:10.884Z,100670.68
2022-12-20T05:32:41.004Z,100655.29
2022-12-20T05:35:11.266Z,100652.21
2022-12-20T05:37:41.746Z,100650.89
2022-12-20T05:40:12.275Z,100649.57
2022-12-20T05:42:42.353Z,100660.15
2022-12-20T05:45:12.732Z,100653.50
2022-12-20T05:47:42.962Z,100664.08
2022-12-20T05:50:18.632Z,100659.66
2022-12-20T05:52:45.220Z,100672.00
2022-12-20T05:55:15.569Z,100669.36
2022-12-20T05:57:45.878Z,100678.16
2022-12-20T06:00:16.869Z,100670.70
2022-12-20T06:02:47.247Z,100673.34
2022-12-20T06:05:17.691Z,100668.06
2022-12-20T06:07:47.924Z,100661.00
2022-12-20T06:10:18.112Z,100661.03
2022-12-20T06:12:48.157Z,100662.34
2022-12-20T06:15:18.404Z,100660.56
2022-12-20T06:17:48.637Z,100659.23
2022-12-20T06:20:18.787Z,100667.63
2022-12-20T06:22:48.986Z,100661.88
2022-12-20T06:25:19.324Z,100673.34
2022-12-20T06:27:49.443Z,100674.66
2022-12-20T06:30:20.211Z,100675.97
2022-12-20T06:32:50.499Z,100661.91
2022-12-20T06:35:20.644Z,100671.58
2022-12-20T06:37:50.663Z,100665.42
2022-12-20T06:40:21.046Z,100665.84
2022-12-20T06:42:51.285Z,100662.77
2022-12-20T06:45:21.457Z,100664.94
2022-12-20T06:47:51.554Z,100666.25
2022-12-20T06:50:21.717Z,100669.75
2022-12-20T06:52:51.870Z,100673.68
2022-12-20T06:55:22.175Z,100680.25
2022-12-20T06:57:52.225Z,100678.05
2022-12-20T07:00:23.359Z,100685.94
2022-12-20T07:02:53.498Z,100681.99
2022-12-20T07:05:23.770Z,100662.88
2022-12-20T07:07:53.941Z,100691.60
2022-12-20T07:10:24.108Z,100679.23
2022-12-20T07:12:54.737Z,100684.95
2022-12-20T07:15:24.879Z,100689.35
2022-12-20T07:17:56.246Z,100688.89
2022-12-20T07:20:26.412Z,100696.36
2022-12-20T07:22:56.511Z,100692.84
2022-12-20T07:25:26.726Z,100683.61
2022-12-20T07:27:58.463Z,100684.49
2022-12-20T07:30:28.731Z,100681.86
2022-12-20T07:32:58.912Z,100680.09
2022-12-20T07:35:29.155Z,100683.58
2022-12-20T07:37:59.321Z,100682.67
2022-12-20T07:40:29.988Z,100685.78
2022-12-20T07:43:00.136Z,100689.27
2022-12-20T07:45:30.721Z,100680.06
2022-12-20T07:48:08.672Z,100680.04
2022-12-20T07:50:34.643Z,100678.75
2022-12-20T07:53:06.785Z,100682.70
2022-12-20T07:55:40.525Z,100681.36
2022-12-20T07:58:14.190Z,100678.72
2022-12-20T08:00:45.250Z,100684.87
2022-12-20T08:03:24.712Z,100676.96
2022-12-20T08:05:58.231Z,100685.28
2022-12-20T08:08:28.607Z,100681.33
2022-12-20T08:10:59.340Z,100681.33
2022-12-20T08:13:29.711Z,100689.24
2022-12-20T08:16:01.467Z,100687.92
2022-12-20T08:18:31.870Z,100680.89
2022-12-20T08:21:02.059Z,100682.21
2022-12-20T08:23:32.281Z,100676.50
2022-12-20T08:26:03.246Z,100672.54
2022-12-20T08:28:33.391Z,100677.37
2022-12-20T08:31:06.315Z,100676.47
2022-12-20T08:33:38.446Z,100677.78
2022-12-20T08:36:12.013Z,100669.44
2022-12-20T08:38:42.706Z,100670.31
2022-12-20T08:41:15.291Z,100666.77
2022-12-20T08:43:45.508Z,100669.91
2022-12-20T08:46:16.023Z,100661.99
2022-12-20T08:48:46.325Z,100669.46
2022-12-20T08:51:16.630Z,100673.89
2022-12-20T08:53:47.927Z,100669.93
2022-12-20T08:56:19.990Z,100669.52
2022-12-20T08:58:50.184Z,100664.70
2022-12-20T09:01:23.049Z,100666.02
2022-12-20T09:03:53.866Z,100663.83
2022-12-20T09:06:24.408Z,100668.24
2022-12-20T09:08:55.708Z,100676.25
2022-12-20T09:11:27.472Z,100666.18
2022-12-20T09:13:59.764Z,100673.68
2022-12-20T09:16:32.934Z,100682.55
2022-12-20T09:19:05.939Z,100676.88
2022-12-20T09:21:36.423Z,100679.55
2022-12-20T09:24:07.451Z,100664.56
2022-12-20T09:26:38.252Z,100672.02
2022-12-20T09:29:08.792Z,100658.82
2022-12-20T09:31:39.388Z,100669.70
2022-12-20T09:34:11.037Z,100674.30
2022-12-20T09:36:41.393Z,100665.98
2022-12-20T09:39:12.835Z,100658.17
2022-12-20T09:41:45.073Z,100654.41
2022-12-20T09:44:23.965Z,100668.59
2022-12-20T09:47:10.498Z,100660.51
2022-12-20T09:49:41.427Z,100661.73
2022-12-20T09:52:43.729Z,100669.20
2022-12-20T09:55:38.333Z,100669.37
2022-12-20T09:58:32.905Z,100680.74
2022-12-20T10:01:15.563Z,100676.63
2022-12-20T10:03:46.823Z,100675.48
2022-12-20T10:06:25.712Z,100681.80
2022-12-20T10:09:02.105Z,100672.33
2022-12-20T10:12:01.108Z,100664.91
2022-12-20T10:14:46.573Z,100673.66
2022-12-20T10:17:19.789Z,100672.22
2022-12-20T10:20:05.169Z,100672.47
2022-12-20T10:22:38.841Z,100665.96
2022-12-20T10:25:14.984Z,100665.19
2022-12-20T10:27:47.216Z,100668.73
2022-12-20T10:30:21.128Z,100672.62
2022-12-20T10:32:54.493Z,100670.58
2022-12-20T10:35:31.484Z,100665.52
2022-12-20T10:38:13.031Z,100657.44
2022-12-20T10:41:20.879Z,100652.41
2022-12-20T10:43:43.114Z,100648.27
2022-12-20T10:46:16.949Z,100641.16
2022-12-20T10:48:49.273Z,100642.05
2022-12-20T10:51:23.555Z,100637.66
2022-12-20T10:54:05.783Z,100633.18
2022-12-20T10:56:37.297Z,100633.80
2022-12-20T10:59:21.338Z,100633.93
2022-12-20T11:01:52.476Z,100632.02
2022-12-20T11:04:38.801Z,100624.87
2022-12-20T11:07:27.704Z,100613.02
2022-12-20T11:10:03.641Z,100601.75
2022-12-20T11:12:34.228Z,100591.22
2022-12-20T11:15:13.410Z,100579.59
2022-12-20T11:17:47.450Z,100575.50
2022-12-20T11:20:29.690Z,100570.95
2022-12-20T11:23:14.801Z,100565.23
2022-12-20T11:26:07.549Z,100562.11
2022-12-20T11:28:58.986Z,100565.56
2022-12-20T11:32:05.367Z,100575.42
2022-12-20T11:34:44.852Z,100576.41
2022-12-20T11:37:29.851Z,100583.98
2022-12-20T11:40:19.107Z,100584.61
2022-12-20T11:42:55.459Z,100580.45
2022-12-20T11:45:28.808Z,100571.42
2022-12-20T11:48:12.060Z,100570.88
2022-12-20T11:51:13.493Z,100562.95
2022-12-20T11:54:02.208Z,100562.41
2022-12-20T11:56:44.725Z,100562.97
2022-12-20T11:59:35.088Z,100552.55
2022-12-20T12:02:14.924Z,100559.09
2022-12-20T12:04:57.406Z,100558.33
2022-12-20T12:07:33.118Z,100563.31
2022-12-20T12:10:24.447Z,100569.84
2022-12-20T12:13:07.495Z,100574.61
2022-12-20T12:15:43.678Z,100568.94
2022-12-20T12:18:23.254Z,100564.40
2022-12-20T12:21:08.483Z,100567.97
2022-12-20T12:23:44.094Z,100561.79
2022-12-20T12:26:17.360Z,100559.02
2022-12-20T12:28:50.588Z,100556.89
2022-12-20T12:31:29.376Z,100557.04
2022-12-20T12:34:17.353Z,100550.52
2022-12-20T12:37:25.619Z,100557.06
2022-12-20T12:40:20.451Z,100555.33
2022-12-20T12:43:11.782Z,100560.91
2022-12-20T12:46:02.272Z,100565.66
2022-12-20T12:48:38.583Z,100548.14
2022-12-20T12:51:10.602Z,100555.28
2022-12-20T12:53:46.884Z,100549.80
2022-12-20T12:56:47.364Z,100551.10
2022-12-20T12:59:15.831Z,100539.73
2022-12-20T13:01:58.470Z,100557.63
2022-12-20T13:04:31.516Z,100549.61
2022-12-20T13:07:07.727Z,100547.38
2022-12-20T13:09:41.175Z,100552.70
2022-12-20T13:12:40.424Z,100551.50
2022-12-20T13:15:25.742Z,100554.26
2022-12-20T13:18:01.499Z,100560.52
2022-12-20T13:20:36.683Z,100559.58
2022-12-20T13:23:14.305Z,100564.77
2022-12-20T13:25:47.575Z,100577.38
2022-12-20T13:28:26.865Z,100574.30
2022-12-20T13:31:06.666Z,100575.55
2022-12-20T13:33:48.408Z,100577.56
2022-12-20T13:36:37.495Z,100580.89
2022-12-20T13:39:26.497Z,100583.39
2022-12-20T13:42:16.330Z,100579.47
2022-12-20T13:44:48.659Z,100590.86
2022-12-20T13:47:47.378Z,100574.98
2022-12-20T13:50:27.846Z,100586.76
2022-12-20T13:52:59.287Z,100586.44
2022-12-20T13:55:35.347Z,100591.60
2022-12-20T13:58:14.180Z,100578.41
2022-12-20T14:00:45.894Z,100584.57
2022-12-20T14:03:25.158Z,100573.48
2022-12-20T14:06:01.369Z,100566.75
2022-12-20T14:08:37.262Z,100554.47
2022-12-20T14:11:18.579Z,100554.03
2022-12-20T14:13:57.859Z,100553.61
2022-12-20T14:16:30.570Z,100551.05
2022-12-20T14:19:09.923Z,100550.62
2022-12-20T14:21:45.943Z,100552.86
2022-12-20T14:24:22.196Z,100550.30
2022-12-20T14:26:54.947Z,100547.57
2022-12-20T14:29:37.434Z,100552.41
2022-12-20T14:32:09.684Z,100543.94
2022-12-20T14:34:43.002Z,100541.70
2022-12-20T14:37:38.475Z,100552.16
2022-12-20T14:40:14.460Z,100553.92
2022-12-20T14:42:46.499Z,100549.63
2022-12-20T14:45:20.452Z,100554.78
2022-12-20T14:48:06.855Z,100559.90
2022-12-20T14:50:37.882Z,100558.64
2022-12-20T14:53:17.013Z,100555.16
2022-12-20T14:55:48.439Z,100549.30
2022-12-20T14:58:34.137Z,100554.98
2022-12-20T15:01:20.082Z,100543.95
2022-12-20T15:03:59.113Z,100522.15
2022-12-20T15:06:38.184Z,100533.43
2022-12-20T15:09:08.611Z,100523.88
2022-12-20T15:11:40.196Z,100518.96
2022-12-20T15:14:40.371Z,100516.23
2022-12-20T15:17:15.859Z,100522.20
2022-12-20T15:19:46.239Z,100518.09
2022-12-20T15:22:19.068Z,100514.91
2022-12-20T15:24:49.456Z,100519.14
2022-12-20T15:27:20.280Z,100518.59
2022-12-20T15:29:50.771Z,100515.02
2022-12-20T15:32:29.868Z,100515.84
2022-12-20T15:35:00.611Z,100514.08
2022-12-20T15:37:31.024Z,100519.34
2022-12-20T15:40:01.388Z,100512.34
2022-12-20T15:42:31.741Z,100509.30
2022-12-20T15:45:02.635Z,100507.56
2022-12-20T15:47:32.969Z,100511.92
2022-12-20T15:50:03.360Z,100502.65
2022-12-20T15:52:33.692Z,100499.47
2022-12-20T15:55:04.076Z,100489.32
2022-12-20T15:57:34.685Z,100491.48
2022-12-20T16:00:32.600Z,100491.54
2022-12-20T16:03:04.383Z,100500.14
2022-12-20T16:05:35.877Z,100497.50
2022-12-20T16:08:06.536Z,100497.87
2022-12-20T16:10:38.505Z,100493.84
2022-12-20T16:13:10.378Z,100489.03
2022-12-20T16:15:40.901Z,100488.46
2022-12-20T16:18:11.384Z,100487.59
2022-12-20T16:20:41.737Z,100492.25
2022-12-20T16:23:22.283Z,100499.57
2022-12-20T16:25:53.165Z,100509.53
2022-12-20T16:28:23.519Z,100507.23
2022-12-20T16:30:54.016Z,100505.37
2022-12-20T16:33:24.352Z,100504.06
2022-12-20T16:35:54.925Z,100500.57
2022-12-20T16:38:25.265Z,100494.84
2022-12-20T16:40:56.022Z,100505.86
2022-12-20T16:43:26.375Z,100497.78
2022-12-20T16:45:57.026Z,100497.96
2022-12-20T16:48:27.382Z,100498.96
2022-12-20T16:50:59.314Z,100488.96
2022-12-20T16:53:48.209Z,100496.86
2022-12-20T16:56:01.836Z,100490.27
2022-12-20T16:58:59.968Z,100498.96
2022-12-20T17:01:04.358Z,100497.96
2022-12-20T17:03:37.965Z,100501.76
2022-12-20T17:06:09.963Z,100481.34
2022-12-20T17:11:34.825Z,100497.86
2022-12-20T17:14:10.346Z,100482.17
2022-12-20T17:16:37.966Z,100489.53
2022-12-20T17:19:08.599Z,100497.08
2022-12-20T17:24:38.351Z,100487.72
2022-12-20T17:27:11.842Z,100462.02
2022-12-20T17:29:42.654Z,100440.69
2022-12-20T17:32:19.187Z,100430.09
2022-12-20T17:34:49.382Z,100438.42
2022-12-20T17:37:21.302Z,100441.25
2022-12-20T17:39:52.123Z,100449.64
2022-12-20T17:42:28.944Z,100457.59
2022-12-20T17:44:56.335Z,100463.24
2022-12-20T17:47:26.778Z,100459.33
2022-12-20T17:49:57.399Z,100461.15
2022-12-20T17:52:28.637Z,100459.84
2022-12-20T17:55:03.373Z,100461.64
2022-12-20T17:57:33.861Z,100456.44
2022-12-20T18:00:04.803Z,100457.05
2022-12-20T18:02:36.389Z,100446.89
2022-12-20T18:05:07.985Z,100449.96
2022-12-20T18:07:38.368Z,100456.20
2022-12-20T18:10:09.851Z,100444.86
2022-12-20T18:12:40.654Z,100435.27
2022-12-20T18:15:11.845Z,100439.21
2022-12-20T18:17:42.523Z,100433.67
2022-12-20T18:20:14.203Z,100438.88
2022-12-20T18:22:45.759Z,100429.32
2022-12-20T18:25:17.652Z,100425.80
2022-12-20T18:27:48.110Z,100422.58
2022-12-20T18:30:18.533Z,100425.03
2022-12-20T18:32:48.984Z,100430.55
2022-12-20T18:35:19.290Z,100433.36
2022-12-20T18:37:49.650Z,100435.77
2022-12-20T18:40:20.210Z,100421.06
2022-12-20T18:42:51.149Z,100424.73
2022-12-20T18:45:21.520Z,100420.95
2022-12-20T18:47:52.109Z,100433.81
2022-12-20T18:50:23.224Z,100424.70
2022-12-20T18:53:00.959Z,100421.80
2022-12-20T18:55:26.861Z,100425.89
2022-12-20T18:57:57.468Z,100424.25
2022-12-20T19:00:28.215Z,100423.49
2022-12-20T19:03:02.422Z,100431.02
2022-12-20T19:05:36.164Z,100434.19
2022-12-20T19:08:06.839Z,100427.23
2022-12-20T19:10:37.199Z,100423.39
2022-12-20T19:13:08.698Z,100418.58
2022-12-20T19:15:39.477Z,100433.62
2022-12-20T19:18:10.083Z,100434.13
2022-12-20T19:20:41.625Z,100426.28
2022-12-20T19:23:11.992Z,100424.13
2022-12-20T19:25:42.328Z,100423.31
2022-12-20T19:28:12.830Z,100419.84
2022-12-20T19:30:43.173Z,100412.03
2022-12-20T19:33:13.844Z,100407.22
2022-12-20T19:35:55.518Z,100406.84
2022-12-20T19:38:16.982Z,100412.61
2022-12-20T19:40:53.491Z,100405.19
2022-12-20T19:43:23.912Z,100412.27
2022-12-20T19:45:54.473Z,100413.62
2022-12-20T19:48:25.102Z,100401.38
2022-12-20T19:51:09.100Z,100414.13
2022-12-20T19:53:42.324Z,100413.28
2022-12-20T19:56:14.363Z,100417.70
2022-12-20T19:58:47.998Z,100409.00
2022-12-20T20:01:21.512Z,100407.72
2022-12-20T20:03:52.987Z,100390.21
2022-12-20T20:06:24.181Z,100402.52
2022-12-20T20:08:57.718Z,100395.97
2022-12-20T20:11:29.033Z,100394.25
2022-12-20T20:14:01.134Z,100391.15
2022-12-20T20:16:31.685Z,100389.87
2022-12-20T20:19:02.340Z,100393.91
2022-12-20T20:21:34.573Z,100378.53
2022-12-20T20:24:05.513Z,100376.41
2022-12-20T20:26:35.916Z,100369.42
2022-12-20T20:29:07.250Z,100358.92
2022-12-20T20:31:38.593Z,100362.90
2022-12-20T20:34:09.885Z,100355.09
2022-12-20T20:36:40.392Z,100364.80
2022-12-20T20:39:10.730Z,100363.56
2022-12-20T20:41:41.106Z,100351.31
2022-12-20T20:44:13.550Z,100358.39
2022-12-20T20:46:43.975Z,100358.03
2022-12-20T20:49:14.412Z,100365.55
2022-12-20T20:51:44.943Z,100362.52
2022-12-20T20:54:15.428Z,100350.70
2022-12-20T20:56:45.932Z,100365.27
2022-12-20T20:59:17.991Z,100376.26
2022-12-20T21:01:48.592Z,100369.29
2022-12-20T21:04:19.206Z,100368.02
2022-12-20T21:06:49.705Z,100357.95
2022-12-20T21:09:20.138Z,100364.59
2022-12-20T21:11:50.926Z,100359.78
2022-12-20T21:14:37.576Z,100355.03
2022-12-20T21:16:53.629Z,100363.84
2022-12-20T21:19:23.876Z,100370.00
2022-12-20T21:21:54.195Z,100357.77
2022-12-20T21:24:24.673Z,100360.39
2022-12-20T21:26:55.432Z,100361.73
2022-12-20T21:29:25.843Z,100357.80
2022-12-20T21:31:56.556Z,100352.98
2022-12-20T21:34:26.952Z,100350.80
2022-12-20T21:36:58.290Z,100350.83
2022-12-20T21:39:28.635Z,100353.52
2022-12-20T21:42:01.962Z,100354.84
2022-12-20T21:44:31.041Z,100348.69
2022-12-20T21:47:01.658Z,100352.69
2022-12-20T21:49:32.016Z,100342.55
2022-12-20T21:52:02.469Z,100347.39
2022-12-20T21:54:32.869Z,100350.48
2022-12-20T21:57:03.252Z,100355.34
2022-12-20T21:59:33.507Z,100351.41
2022-12-20T22:02:04.471Z,100342.21
2022-12-20T22:04:35.758Z,100340.48
2022-12-20T22:07:06.119Z,100340.94
2022-12-20T22:09:36.432Z,100343.16
2022-12-20T22:12:06.955Z,100337.47
2022-12-20T22:14:37.235Z,100322.09
2022-12-20T22:17:07.645Z,100326.06
2022-12-20T22:19:38.464Z,100322.59
2022-12-20T22:22:08.799Z,100309.88
2022-12-20T22:24:39.105Z,100316.50
2022-12-20T22:27:11.581Z,100305.11
2022-12-20T22:29:42.101Z,100292.80
2022-12-20T22:32:12.531Z,100301.56
2022-12-20T22:34:42.971Z,100299.84
2022-12-20T22:37:13.401Z,100301.58
2022-12-20T22:39:43.713Z,100302.89
2022-12-20T22:42:14.151Z,100313.45
2022-12-20T22:44:44.799Z,100307.30
2022-12-20T22:47:15.337Z,100310.38
2022-12-20T22:49:45.734Z,100289.73
2022-12-20T22:52:16.088Z,100289.73
2022-12-20T22:54:46.507Z,100287.09
2022-12-20T22:57:16.942Z,100291.91
2022-12-20T22:59:47.145Z,100285.78
2022-12-20T23:02:17.740Z,100277.42
2022-12-20T23:04:48.693Z,100277.86
2022-12-20T23:07:19.338Z,100270.78
2022-12-20T23:09:49.571Z,100273.40
2022-12-20T23:12:38.055Z,100269.88
2022-12-20T23:15:31.570Z,100262.79
2022-12-20T23:18:01.926Z,100272.85
2022-12-20T23:20:49.986Z,100251.77
2022-12-20T23:23:20.498Z,100264.03
2022-12-20T23:25:50.827Z,100260.97
2022-12-20T23:28:21.260Z,100254.83
2022-12-20T23:30:51.564Z,100251.37
2022-12-20T23:33:21.925Z,100251.81
2022-12-20T23:35:59.181Z,100246.98
2022-12-20T23:38:30.943Z,100252.73
2022-12-20T23:41:01.504Z,100245.26
2022-12-20T23:43:32.513Z,100229.04
2022-12-20T23:46:08.244Z,100223.33
2022-12-20T23:48:39.350Z,100211.83
2022-12-20T23:51:10.926Z,100220.22
2022-12-20T23:53:41.573Z,100210.06
2022-12-20T23:56:17.503Z,100209.17
2022-12-20T23:58:55.425Z,100207.83
